Time;durP1;ratioP1;P1;durP2;ratioP2;P2;SDS_P1;SDS_P2;PMS_P1;PMS_P2;Temp;Humidity;BMP_temperature;BMP_pressure;BME280_temperature;BME280_humidity;BME280_pressure;Samples;Min_cycle;Max_cycle;Signal;HPM_P1;HPM_P2
2022/11/03 00:01:58;;;;;;;11.13;5.30;;;;;;;6.85;100.00;100803.06;4958463;29;20418;-76
2022/11/03 00:04:24;;;;;;;11.73;5.45;;;;;;;6.92;100.00;100797.56;4959050;29;20215;-76
2022/11/03 00:06:51;;;;;;;7.90;4.28;;;;;;;6.89;100.00;100794.03;4958882;29;20705;-76
2022/11/03 00:09:19;;;;;;;10.98;4.60;;;;;;;6.86;100.00;100785.19;5020378;28;20205;-76
2022/11/03 00:11:47;;;;;;;8.20;4.90;;;;;;;6.95;100.00;100782.31;5038492;28;20251;-75
2022/11/03 00:14:14;;;;;;;11.38;5.70;;;;;;;7.05;100.00;100782.94;5039236;28;20594;-76
2022/11/03 00:16:41;;;;;;;8.77;5.38;;;;;;;6.98;100.00;100784.03;5039401;28;20217;-75
2022/11/03 00:19:10;;;;;;;12.43;6.20;;;;;;;6.96;100.00;100781.38;5037993;28;20225;-76
2022/11/03 00:21:37;;;;;;;10.18;5.35;;;;;;;7.07;100.00;100778.44;5038141;28;20300;-75
2022/11/03 00:24:04;;;;;;;10.95;5.25;;;;;;;6.98;100.00;100778.66;5037359;28;20199;-75
2022/11/03 00:26:32;;;;;;;9.60;5.40;;;;;;;6.93;100.00;100773.44;5037644;28;20208;-78
2022/11/03 00:29:00;;;;;;;11.63;5.80;;;;;;;6.85;100.00;100765.59;5037613;28;20205;-76
2022/11/03 00:31:29;;;;;;;9.10;5.70;;;;;;;6.78;100.00;100761.28;5038109;28;20239;-76
2022/11/03 00:33:57;;;;;;;11.32;5.72;;;;;;;6.80;100.00;100759.44;5037910;28;20300;-73
2022/11/03 00:36:26;;;;;;;11.70;5.30;;;;;;;6.79;100.00;100763.06;5038056;28;20211;-73
2022/11/03 00:38:53;;;;;;;9.48;5.18;;;;;;;6.77;100.00;100756.84;5037104;28;20223;-75
2022/11/03 00:41:21;;;;;;;10.45;4.65;;;;;;;6.63;100.00;100749.16;5036524;28;20228;-73
2022/11/03 00:43:48;;;;;;;10.00;5.10;;;;;;;6.57;100.00;100745.75;5023232;28;20192;-75
2022/11/03 00:46:15;;;;;;;9.95;5.60;;;;;;;6.43;100.00;100741.59;5046235;28;20637;-75
2022/11/03 00:48:42;;;;;;;15.23;6.43;;;;;;;6.32;100.00;100737.41;5045803;28;20302;-73
2022/11/03 00:51:10;;;;;;;13.60;5.68;;;;;;;6.31;100.00;100732.94;5044848;28;20220;-73
2022/11/03 00:53:41;;;;;;;9.75;5.20;;;;;;;6.36;100.00;100725.72;5042947;28;20270;-74
2022/11/03 00:56:12;;;;;;;12.68;5.55;;;;;;;6.37;100.00;100736.38;5043364;28;20204;-74
2022/11/03 00:58:39;;;;;;;26.75;15.63;;;;;;;6.35;100.00;100734.66;5043545;28;20198;-74
2022/11/03 01:01:08;;;;;;;11.55;6.10;;;;;;;6.11;100.00;100736.09;5065735;22;20232;-77
2022/11/03 01:03:36;;;;;;;8.93;6.25;;;;;;;6.11;100.00;100730.75;5047208;28;20668;-78
2022/11/03 01:08:51;;;;;;;14.68;6.20;;;;;;;6.11;100.00;100728.06;5044893;28;20198;-78
2022/11/03 01:14:05;;;;;;;11.88;6.10;;;;;;;6.08;100.00;100715.59;5034741;28;20187;-78
2022/11/03 01:16:32;;;;;;;18.08;6.18;;;;;;;5.88;100.00;100716.03;5037708;28;20728;-78
2022/11/03 01:18:59;;;;;;;9.43;6.05;;;;;;;5.89;100.00;100715.09;5040317;28;20218;-76
2022/11/03 01:21:26;;;;;;;9.98;5.53;;;;;;;5.96;100.00;100716.75;5035113;28;20223;-76
2022/11/03 01:23:53;;;;;;;18.00;7.00;;;;;;;5.81;100.00;100717.94;5035735;28;20204;-77
2022/11/03 01:26:20;;;;;;;9.65;6.22;;;;;;;5.77;100.00;100707.34;5036022;28;20746;-77
2022/11/03 01:28:47;;;;;;;12.50;5.57;;;;;;;5.91;100.00;100702.59;5036225;28;20202;-76
2022/11/03 01:31:16;;;;;;;10.52;5.80;;;;;;;5.84;100.00;100703.63;5035562;28;20222;-75
2022/11/03 01:33:44;;;;;;;11.45;6.05;;;;;;;5.96;100.00;100708.75;5035165;28;20203;-76
2022/11/03 01:36:12;;;;;;;9.40;5.47;;;;;;;5.96;100.00;100708.75;5034513;28;20251;-75
2022/11/03 01:38:39;;;;;;;7.38;5.50;;;;;;;6.01;100.00;100704.16;5037227;28;20218;-77
2022/11/03 01:41:09;;;;;;;8.35;5.20;;;;;;;5.98;100.00;100703.38;5037480;28;20241;-77
2022/11/03 01:43:38;;;;;;;8.73;5.85;;;;;;;5.95;100.00;100703.44;5038184;28;20206;-77
2022/11/03 01:46:15;;;;;;;14.02;6.55;;;;;;;5.91;100.00;100701.72;5043924;28;20211;-77
2022/11/03 01:48:45;;;;;;;10.40;5.45;;;;;;;5.88;100.00;100693.75;5043189;28;20282;-76
2022/11/03 01:51:16;;;;;;;12.82;6.68;;;;;;;5.86;100.00;100683.09;5042143;28;20304;-77
2022/11/03 01:53:46;;;;;;;7.80;5.43;;;;;;;5.76;100.00;100679.72;5039011;28;20664;-77
2022/11/03 01:56:16;;;;;;;10.93;6.03;;;;;;;5.71;100.00;100684.28;5039425;28;20187;-77
2022/11/03 01:58:45;;;;;;;8.20;5.53;;;;;;;5.63;100.00;100675.53;5037845;28;20199;-77
2022/11/03 02:01:12;;;;;;;11.80;6.50;;;;;;;5.63;100.00;100679.13;5036397;28;20610;-78
2022/11/03 02:03:45;;;;;;;7.50;5.40;;;;;;;5.72;100.00;100685.16;5046722;28;20199;-77
2022/11/03 02:06:12;;;;;;;15.27;6.45;;;;;;;5.69;100.00;100678.09;5055290;28;20274;-79
2022/11/03 02:08:43;;;;;;;10.45;6.03;;;;;;;5.60;100.00;100678.28;5043368;28;20221;-78
2022/11/03 02:13:52;;;;;;;14.80;6.13;;;;;;;5.42;100.00;100658.16;5014505;28;20198;-78
2022/11/03 02:16:20;;;;;;;8.25;5.63;;;;;;;5.37;100.00;100654.72;5020642;28;20637;-77
2022/11/03 02:18:47;;;;;;;11.82;6.20;;;;;;;5.39;100.00;100642.22;5037662;28;20280;-76
2022/11/03 02:21:23;;;;;;;8.10;5.30;;;;;;;5.47;100.00;100634.91;5036666;28;20214;-77
2022/11/03 02:23:56;;;;;;;16.33;6.57;;;;;;;5.29;100.00;100632.63;5038409;28;20201;-77
2022/11/03 02:26:24;;;;;;;14.23;5.70;;;;;;;5.38;100.00;100637.75;5037530;28;20245;-80
2022/11/03 02:28:50;;;;;;;8.90;5.40;;;;;;;5.30;100.00;100635.25;5038693;28;20206;-77
2022/11/03 02:31:25;;;;;;;6.63;4.57;;;;;;;5.31;100.00;100637.00;5039202;28;20246;-78
2022/11/03 02:33:57;;;;;;;9.30;5.70;;;;;;;5.29;100.00;100628.19;5042480;28;20198;-78
2022/11/03 02:36:30;;;;;;;8.68;5.57;;;;;;;5.30;100.00;100627.25;5041965;28;20214;-78
2022/11/03 02:39:01;;;;;;;7.97;4.97;;;;;;;5.20;100.00;100620.31;5041571;28;20196;-79
2022/11/03 02:41:32;;;;;;;9.52;5.25;;;;;;;5.15;100.00;100620.41;5043175;28;20230;-77
2022/11/03 02:44:01;;;;;;;7.55;4.20;;;;;;;5.17;100.00;100615.06;5042345;28;20228;-78
2022/11/03 02:46:30;;;;;;;9.50;5.53;;;;;;;5.12;100.00;100622.28;5041438;28;20291;-78
2022/11/03 02:48:57;;;;;;;9.02;5.50;;;;;;;5.04;100.00;100618.88;5041648;28;20199;-78
2022/11/03 02:51:24;;;;;;;12.05;5.68;;;;;;;5.01;100.00;100615.34;5042658;28;20207;-77
2022/11/03 02:54:00;;;;;;;13.60;5.18;;;;;;;5.06;100.00;100612.59;5043876;28;20634;-77
2022/11/03 02:56:31;;;;;;;10.93;5.55;;;;;;;5.06;100.00;100604.56;5051004;28;20198;-76
2022/11/03 02:59:01;;;;;;;8.07;5.05;;;;;;;5.07;100.00;100601.00;5051079;28;20206;-78
2022/11/03 03:01:33;;;;;;;12.35;5.65;;;;;;;5.07;100.00;100597.47;5047528;28;20236;-77
2022/11/03 03:04:03;;;;;;;7.70;5.40;;;;;;;5.00;100.00;100597.56;5044958;28;20201;-79
2022/11/03 03:06:35;;;;;;;8.70;5.03;;;;;;;4.97;100.00;100602.97;5040783;28;20202;-75
2022/11/03 03:09:06;;;;;;;10.88;5.30;;;;;;;4.95;100.00;100596.78;5037391;28;20191;-76
2022/11/03 03:11:36;;;;;;;11.40;6.00;;;;;;;4.92;100.00;100591.50;5039982;28;20280;-77
2022/11/03 03:14:07;;;;;;;7.22;4.93;;;;;;;4.66;100.00;100593.75;5041676;28;20194;-76
2022/11/03 03:16:41;;;;;;;13.82;5.95;;;;;;;4.74;100.00;100571.38;5040853;28;20186;-78
2022/11/03 03:19:15;;;;;;;11.50;5.78;;;;;;;4.81;100.00;100570.34;5039151;28;20186;-78
2022/11/03 03:21:45;;;;;;;11.13;6.43;;;;;;;4.89;100.00;100567.53;5038278;28;20683;-78
2022/11/03 03:24:18;;;;;;;10.10;6.97;;;;;;;4.76;100.00;100560.69;5049463;28;20240;-78
2022/11/03 03:26:49;;;;;;;9.35;7.07;;;;;;;4.85;100.00;100563.19;5047985;28;20270;-75
2022/11/03 03:29:22;;;;;;;13.60;8.25;;;;;;;4.73;100.00;100558.97;5046895;28;20198;-76
2022/11/03 03:31:53;;;;;;;11.05;6.90;;;;;;;4.80;100.00;100557.94;5043587;28;20320;-79
2022/11/03 03:34:22;;;;;;;13.48;6.60;;;;;;;4.85;100.00;100565.84;5039103;28;20196;-78
2022/11/03 03:36:51;;;;;;;14.25;7.55;;;;;;;4.77;100.00;100550.00;5038666;28;20201;-77
2022/11/03 03:39:20;;;;;;;10.13;6.20;;;;;;;4.81;100.00;100549.00;5037626;28;20194;-78
2022/11/03 03:41:48;;;;;;;16.27;6.50;;;;;;;4.78;100.00;100553.53;5036818;28;20218;-77
2022/11/03 03:44:16;;;;;;;9.32;6.85;;;;;;;4.78;100.00;100548.19;5035657;28;20212;-77
2022/11/03 03:46:47;;;;;;;11.98;6.65;;;;;;;4.84;100.00;100548.09;5036855;28;20198;-78
2022/11/03 03:49:14;;;;;;;13.38;6.30;;;;;;;4.81;100.00;100543.66;5039612;28;20212;-77
2022/11/03 03:51:41;;;;;;;8.90;5.47;;;;;;;4.80;100.00;100546.38;5041089;28;20240;-78
2022/11/03 03:54:08;;;;;;;8.45;5.35;;;;;;;4.70;100.00;100537.66;5039923;28;20208;-76
2022/11/03 03:56:41;;;;;;;13.73;6.65;;;;;;;4.58;100.00;100543.22;5039050;28;20217;-78
2022/11/03 03:59:09;;;;;;;11.38;5.30;;;;;;;4.63;100.00;100538.69;5039241;28;20202;-77
2022/11/03 04:01:35;;;;;;;8.45;5.47;;;;;;;4.55;100.00;100537.97;5038767;28;20222;-77
2022/11/03 04:04:02;;;;;;;7.15;5.60;;;;;;;4.68;100.00;100536.81;5040455;28;20198;-77
2022/11/03 04:06:29;;;;;;;14.77;6.00;;;;;;;4.59;100.00;100529.00;5039476;28;20208;-78
2022/11/03 04:08:55;;;;;;;8.85;5.75;;;;;;;4.66;100.00;100532.41;5039835;28;20297;-76
2022/11/03 04:22:20;;;;;;;7.95;5.47;;;;;;;4.54;100.00;100528.19;5028193;28;20233;-76
2022/11/03 04:24:49;;;;;;;9.18;5.47;;;;;;;4.46;100.00;100516.78;5044328;28;20198;-79
2022/11/03 04:27:27;;;;;;;10.52;4.80;;;;;;;4.50;100.00;100511.38;5044013;28;20237;-78
2022/11/03 04:29:57;;;;;;;10.07;5.13;;;;;;;4.50;100.00;100511.38;5044093;28;20636;-78
2022/11/03 04:32:26;;;;;;;5.65;4.50;;;;;;;4.50;100.00;100510.47;5041870;28;20218;-77
2022/11/03 04:34:52;;;;;;;12.13;4.43;;;;;;;4.47;100.00;100505.22;5037839;28;20200;-77
2022/11/03 04:37:19;;;;;;;6.68;4.60;;;;;;;4.45;100.00;100504.34;5035845;28;20694;-78
2022/11/03 04:39:45;;;;;;;6.40;4.60;;;;;;;4.48;100.00;100504.31;5037239;28;20200;-78
2022/11/03 04:42:17;;;;;;;6.65;5.32;;;;;;;4.53;100.00;100500.63;5036467;28;20225;-78
2022/11/03 04:44:43;;;;;;;7.07;4.70;;;;;;;4.30;100.00;100509.06;5039069;28;20182;-76
2022/11/03 04:47:13;;;;;;;8.02;5.70;;;;;;;4.42;100.00;100499.09;5037958;28;20281;-78
2022/11/03 04:49:41;;;;;;;11.32;6.60;;;;;;;4.33;100.00;100495.66;5038295;28;20304;-78
2022/11/03 04:52:14;;;;;;;9.40;5.30;;;;;;;4.41;100.00;100498.22;5037990;28;20306;-77
2022/11/03 04:54:41;;;;;;;6.97;4.70;;;;;;;4.40;100.00;100493.78;5038202;28;20197;-77
2022/11/03 04:57:11;;;;;;;8.18;5.15;;;;;;;4.44;100.00;100495.47;5036874;28;20207;-76
2022/11/03 04:59:38;;;;;;;8.25;4.95;;;;;;;4.48;100.00;100486.53;5049374;28;20202;-79
2022/11/03 05:02:11;;;;;;;10.95;4.97;;;;;;;4.35;100.00;100483.19;5055468;28;20252;-81
2022/11/03 05:04:38;;;;;;;7.65;4.90;;;;;;;4.38;100.00;100482.25;5043922;28;20640;-77
2022/11/03 05:07:21;;;;;;;8.10;5.15;;;;;;;4.37;100.00;100480.50;5038332;28;20194;-77
2022/11/03 05:09:48;;;;;;;9.85;5.00;;;;;;;4.34;100.00;100473.44;5046848;28;20194;-76
2022/11/03 05:12:16;;;;;;;8.35;5.45;;;;;;;4.31;100.00;100470.81;5044402;28;20218;-78
2022/11/03 05:14:43;;;;;;;8.60;4.65;;;;;;;4.28;100.00;100462.88;5037711;28;20190;-78
2022/11/03 05:17:21;;;;;;;6.45;4.50;;;;;;;4.24;100.00;100460.31;5019399;28;20204;-80
2022/11/03 05:19:50;;;;;;;10.73;5.30;;;;;;;4.23;100.00;100456.78;5021232;28;20248;-77
2022/11/03 05:22:22;;;;;;;7.93;5.03;;;;;;;4.31;100.00;100452.16;5039512;28;20498;-77
2022/11/03 05:24:54;;;;;;;9.10;5.63;;;;;;;4.21;100.00;100452.38;5040849;28;20217;-78
2022/11/03 05:27:22;;;;;;;6.30;4.88;;;;;;;4.25;100.00;100456.72;5039469;28;20260;-78
2022/11/03 05:29:50;;;;;;;6.60;4.95;;;;;;;4.11;100.00;100454.31;5039447;28;20216;-78
2022/11/03 05:32:21;;;;;;;7.30;5.10;;;;;;;4.05;100.00;100446.41;5038254;28;20574;-76
2022/11/03 05:34:51;;;;;;;7.30;5.50;;;;;;;3.98;100.00;100440.34;5040418;28;20277;-76
2022/11/03 05:37:26;;;;;;;6.93;5.10;;;;;;;4.06;100.00;100434.88;5040964;28;20239;-78
2022/11/03 05:40:20;;;;;;;14.93;9.35;;;;;;;4.11;100.00;100436.53;5045848;28;20201;-78
2022/11/03 05:42:50;;;;;;;12.68;5.82;;;;;;;3.99;100.00;100433.22;5044653;28;20253;-77
2022/11/03 05:45:22;;;;;;;10.07;5.40;;;;;;;4.02;100.00;100430.50;5032616;28;20569;-78
2022/11/03 05:47:50;;;;;;;12.00;5.20;;;;;;;4.10;100.00;100425.91;5027166;28;20200;-75
2022/11/03 05:50:20;;;;;;;5.40;4.57;;;;;;;4.02;100.00;100428.69;5017420;28;20210;-78
2022/11/03 05:52:49;;;;;;;6.65;5.32;;;;;;;4.11;100.00;100420.53;5019877;28;20199;-78
2022/11/03 05:55:25;;;;;;;13.10;8.18;;;;;;;4.19;100.00;100425.75;5019892;28;20202;-77
2022/11/03 05:57:53;;;;;;;7.72;5.50;;;;;;;4.20;100.00;100421.28;5017576;28;20575;-76
2022/11/03 06:00:27;;;;;;;11.30;5.30;;;;;;;3.94;100.00;100420.84;5017001;28;20202;-79
2022/11/03 06:02:54;;;;;;;7.25;4.60;;;;;;;3.92;100.00;100417.34;5016126;28;20579;-78
2022/11/03 06:05:22;;;;;;;8.48;5.32;;;;;;;3.97;100.00;100419.91;5016742;28;20202;-77
2022/11/03 06:07:54;;;;;;;11.23;5.88;;;;;;;4.07;100.00;100415.28;5018796;28;20212;-76
2022/11/03 06:10:25;;;;;;;7.03;5.10;;;;;;;3.90;100.00;100397.81;5034341;28;20198;-75
2022/11/03 06:12:54;;;;;;;18.92;12.85;;;;;;;4.04;100.00;100399.38;5038174;28;20208;-76
2022/11/03 06:15:28;;;;;;;12.23;6.32;;;;;;;3.96;100.00;100392.41;5019316;28;20671;-77
2022/11/03 06:17:55;;;;;;;13.65;6.43;;;;;;;4.11;100.00;100393.88;5002169;28;20204;-76
2022/11/03 06:20:22;;;;;;;7.95;5.70;;;;;;;4.20;100.00;100383.97;5021219;28;20213;-77
2022/11/03 06:22:54;;;;;;;11.25;5.53;;;;;;;4.29;100.00;100391.78;5023255;28;20243;-77
2022/11/03 06:25:28;;;;;;;13.13;5.60;;;;;;;4.31;100.00;100385.50;5022437;28;20203;-77
2022/11/03 06:28:00;;;;;;;8.38;4.82;;;;;;;4.18;100.00;100386.63;5024687;28;20289;-76
2022/11/03 06:30:29;;;;;;;10.43;5.55;;;;;;;4.09;100.00;100384.16;5025435;28;20194;-76
2022/11/03 06:33:10;;;;;;;7.95;5.47;;;;;;;3.94;100.00;100394.22;5027459;28;20207;-78
2022/11/03 06:35:36;;;;;;;10.45;5.75;;;;;;;3.90;100.00;100389.84;5027578;28;20218;-77
2022/11/03 06:38:08;;;;;;;15.45;7.43;;;;;;;4.11;100.00;100390.34;5026426;28;20203;-76
2022/11/03 06:40:36;;;;;;;10.73;5.60;;;;;;;4.30;100.00;100382.88;5024057;28;20589;-77
2022/11/03 06:43:14;;;;;;;8.10;5.72;;;;;;;4.29;100.00;100373.97;5022223;28;20207;-78
2022/11/03 06:45:48;;;;;;;13.95;6.35;;;;;;;4.45;100.00;100379.00;5022281;28;20189;-79
2022/11/03 06:48:20;;;;;;;27.80;14.90;;;;;;;4.58;100.00;100389.38;5019722;28;20202;-78
2022/11/03 06:50:47;;;;;;;13.13;6.68;;;;;;;4.56;100.00;100385.00;5022028;28;20310;-78
2022/11/03 06:53:21;;;;;;;10.25;6.03;;;;;;;4.62;100.00;100384.88;5021518;28;20205;-77
2022/11/03 06:55:48;;;;;;;10.15;5.53;;;;;;;4.73;100.00;100380.19;5021607;28;20203;-75
2022/11/03 06:58:19;;;;;;;10.13;5.75;;;;;;;4.93;100.00;100381.53;5023548;28;20203;-78
2022/11/03 07:00:46;;;;;;;25.92;14.27;;;;;;;5.08;100.00;100370.50;4986580;28;1236715;-76
2022/11/03 07:03:19;;;;;;;12.95;7.45;;;;;;;4.79;100.00;100361.38;5038722;28;20206;-77
2022/11/03 07:05:45;;;;;;;11.70;7.30;;;;;;;5.06;100.00;100356.31;5039139;28;20206;-77
2022/11/03 07:08:22;;;;;;;19.90;12.10;;;;;;;5.49;100.00;100360.59;5039544;28;20194;-77
2022/11/03 07:10:50;;;;;;;10.40;6.35;;;;;;;5.78;100.00;100362.53;5046721;28;20233;-76
2022/11/03 07:13:22;;;;;;;9.68;6.32;;;;;;;6.05;100.00;100363.63;5047578;28;20644;-78
2022/11/03 07:15:49;;;;;;;9.30;6.22;;;;;;;6.26;100.00;100359.50;5044101;28;20194;-79
2022/11/03 07:18:22;;;;;;;10.85;5.70;;;;;;;6.34;100.00;100353.03;5045393;28;20286;-77
2022/11/03 07:20:49;;;;;;;21.27;12.15;;;;;;;6.81;100.00;100340.06;5044053;28;20237;-77
2022/11/03 07:23:22;;;;;;;17.92;9.90;;;;;;;7.34;100.00;100328.53;5043301;28;20247;-79
2022/11/03 07:25:53;;;;;;;9.45;5.90;;;;;;;7.56;100.00;100332.25;5039478;28;20209;-79
2022/11/03 07:28:21;;;;;;;15.25;6.20;;;;;;;8.17;100.00;100331.91;5040105;28;20591;-79
2022/11/03 07:30:48;;;;;;;12.32;6.65;;;;;;;8.76;100.00;100314.50;5040599;28;20737;-77
2022/11/03 07:33:19;;;;;;;14.02;7.20;;;;;;;8.88;100.00;100308.63;5039963;28;20314;-78
2022/11/03 07:35:47;;;;;;;12.85;6.47;;;;;;;9.12;100.00;100300.53;5038762;28;20272;-77
2022/11/03 07:38:18;;;;;;;10.40;6.30;;;;;;;9.34;100.00;100290.63;5038857;28;20202;-78
2022/11/03 07:40:46;;;;;;;9.93;6.65;;;;;;;9.43;100.00;100285.78;5040555;28;20225;-77
2022/11/03 07:43:16;;;;;;;13.30;7.47;;;;;;;9.18;100.00;100278.78;5038231;28;20222;-78
2022/11/03 07:45:46;;;;;;;12.45;6.35;;;;;;;9.97;100.00;100277.16;5038016;28;20725;-77
2022/11/03 07:48:22;;;;;;;12.55;5.60;;;;;;;10.75;100.00;100277.19;5039991;28;20288;-78
2022/11/03 07:50:50;;;;;;;11.63;6.30;;;;;;;11.10;100.00;100275.44;5037823;28;20228;-78
2022/11/03 07:53:21;;;;;;;12.55;6.18;;;;;;;11.81;100.00;100272.75;5038572;28;20206;-78
2022/11/03 07:55:49;;;;;;;9.27;5.82;;;;;;;13.12;100.00;100262.88;5055720;28;20225;-80
2022/11/03 07:58:21;;;;;;;12.43;5.53;;;;;;;13.56;100.00;100264.78;5056768;28;20261;-77
2022/11/03 08:00:48;;;;;;;9.85;5.57;;;;;;;13.39;100.00;100263.09;5042970;28;20226;-78
2022/11/03 08:03:26;;;;;;;10.10;5.70;;;;;;;13.53;100.00;100267.69;5042184;28;20289;-77
2022/11/03 08:05:53;;;;;;;10.40;6.15;;;;;;;13.86;100.00;100261.19;5040183;28;20598;-78
2022/11/03 08:08:19;;;;;;;7.30;5.53;;;;;;;14.20;100.00;100249.16;5041105;28;20208;-78
2022/11/03 08:10:46;;;;;;;8.82;5.93;;;;;;;14.73;100.00;100247.59;5040758;28;20222;-76
2022/11/03 08:13:14;;;;;;;12.75;6.25;;;;;;;14.79;100.00;100241.78;5039364;28;20289;-77
2022/11/03 08:15:40;;;;;;;11.77;5.65;;;;;;;14.96;100.00;100231.66;5044720;28;20197;-78
2022/11/03 08:18:07;;;;;;;9.00;5.63;;;;;;;15.51;97.87;100236.06;5047694;28;20227;-78
2022/11/03 08:20:33;;;;;;;12.20;5.82;;;;;;;15.89;94.31;100223.56;5039028;28;20228;-78
2022/11/03 08:23:00;;;;;;;10.32;5.30;;;;;;;15.87;93.44;100218.22;5037630;28;20244;-77
2022/11/03 08:25:26;;;;;;;9.73;5.75;;;;;;;15.98;92.25;100215.63;5037290;28;20205;-77
2022/11/03 08:27:53;;;;;;;10.10;5.65;;;;;;;15.38;97.54;100210.75;5036947;28;20269;-77
2022/11/03 08:30:21;;;;;;;7.05;4.65;;;;;;;15.68;97.99;100204.19;5037036;28;20212;-76
2022/11/03 08:32:47;;;;;;;9.25;5.65;;;;;;;16.00;94.09;100207.38;5036955;28;20568;-77
2022/11/03 08:35:14;;;;;;;7.80;5.05;;;;;;;16.33;90.05;100203.22;5036514;28;20204;-79
2022/11/03 08:37:40;;;;;;;9.30;5.43;;;;;;;16.61;89.65;100210.22;5037452;28;20774;-77
2022/11/03 08:40:11;;;;;;;8.30;4.87;;;;;;;17.65;81.59;100198.75;5038778;28;20212;-78
2022/11/03 08:42:38;;;;;;;9.00;5.10;;;;;;;18.70;72.98;100191.25;5038462;28;20473;-77
2022/11/03 08:45:06;;;;;;;9.20;4.60;;;;;;;19.39;67.54;100190.94;5020888;28;20535;-77
2022/11/03 08:47:34;;;;;;;6.57;4.10;;;;;;;20.13;60.57;100176.34;5039216;28;20448;-78
2022/11/03 08:50:00;;;;;;;11.27;4.93;;;;;;;20.41;59.36;100182.94;5036288;28;20451;-76
2022/11/03 08:52:27;;;;;;;8.73;4.53;;;;;;;20.68;58.04;100176.00;5035794;28;20514;-77
2022/11/03 08:54:54;;;;;;;9.87;4.50;;;;;;;21.36;54.91;100184.28;5034949;28;20586;-77
2022/11/03 08:57:20;;;;;;;18.33;11.40;;;;;;;21.56;53.69;100183.31;5034980;28;20441;-78
2022/11/03 08:59:47;;;;;;;13.07;7.67;;;;;;;21.80;52.05;100169.13;5035827;28;20531;-78
2022/11/03 09:02:14;;;;;;;8.00;3.63;;;;;;;20.95;54.00;100178.06;5036668;28;20511;-77
2022/11/03 09:04:42;;;;;;;10.73;4.07;;;;;;;21.96;52.09;100178.63;5035042;28;20447;-76
2022/11/03 09:07:08;;;;;;;11.27;4.17;;;;;;;22.59;49.70;100181.56;5035396;28;20455;-77
2022/11/03 09:09:35;;;;;;;7.07;4.30;;;;;;;22.89;48.31;100185.00;5036045;28;20451;-77
2022/11/03 09:12:01;;;;;;;5.73;3.60;;;;;;;22.99;47.48;100180.34;5037358;28;20471;-78
2022/11/03 09:14:28;;;;;;;5.10;3.30;;;;;;;24.24;45.22;100192.22;5036745;28;20445;-78
2022/11/03 09:16:54;;;;;;;5.77;3.40;;;;;;;24.60;42.94;100192.06;5036360;28;20826;-77
2022/11/03 09:19:21;;;;;;;6.97;4.30;;;;;;;24.75;43.06;100199.53;5040356;28;20444;-79
2022/11/03 09:21:51;;;;;;;6.43;4.03;;;;;;;24.18;43.28;100198.38;5042463;28;20595;-76
2022/11/03 09:24:17;;;;;;;11.53;3.93;;;;;;;23.01;46.56;100183.78;5047217;28;20522;-77
2022/11/03 09:26:44;;;;;;;6.20;3.93;;;;;;;21.79;51.10;100177.50;5043970;28;20447;-76
2022/11/03 09:29:10;;;;;;;6.13;4.10;;;;;;;21.68;51.56;100170.28;5040905;28;20484;-78
2022/11/03 09:31:37;;;;;;;6.70;4.00;;;;;;;21.35;52.93;100158.78;5036259;28;20547;-78
2022/11/03 09:34:03;;;;;;;5.90;3.70;;;;;;;21.18;53.91;100146.66;5035816;28;20440;-77
2022/11/03 09:36:30;;;;;;;6.40;4.27;;;;;;;20.44;55.88;100147.09;5036043;28;20531;-78
2022/11/03 09:38:58;;;;;;;9.23;4.40;;;;;;;20.35;57.54;100146.09;5035902;28;20455;-77
2022/11/03 09:41:24;;;;;;;5.90;4.00;;;;;;;20.16;58.90;100138.66;5036602;28;20530;-77
2022/11/03 09:43:51;;;;;;;5.60;4.67;;;;;;;19.98;59.50;100132.09;5039586;28;20480;-79
2022/11/03 09:46:19;;;;;;;10.97;4.67;;;;;;;19.94;60.14;100133.38;5039898;28;20458;-78
2022/11/03 09:48:46;;;;;;;5.13;3.97;;;;;;;20.35;59.14;100132.41;5040006;28;20445;-77
2022/11/03 09:51:18;;;;;;;7.23;3.93;;;;;;;19.44;62.98;100133.19;5039041;28;20483;-77
2022/11/03 09:53:45;;;;;;;7.80;4.10;;;;;;;19.96;62.04;100129.50;5040672;28;20633;-77
2022/11/03 09:56:13;;;;;;;7.27;3.67;;;;;;;19.66;62.53;100119.41;5040040;28;20882;-78
2022/11/03 09:58:40;;;;;;;7.13;4.30;;;;;;;19.40;64.21;100118.06;5038752;28;20539;-78
2022/11/03 10:01:10;;;;;;;6.30;4.37;;;;;;;19.33;65.43;100106.81;5038927;28;20498;-76
2022/11/03 10:03:38;;;;;;;8.77;4.83;;;;;;;18.71;69.55;100101.09;5039805;28;20491;-78
2022/11/03 10:06:05;;;;;;;10.47;5.10;;;;;;;18.80;69.55;100094.03;5042220;28;20440;-77
2022/11/03 10:08:34;;;;;;;6.43;4.50;;;;;;;18.84;69.57;100087.34;5039981;28;20453;-77
2022/11/03 10:11:01;;;;;;;6.83;4.23;;;;;;;18.84;69.32;100081.88;5023035;28;20467;-77
2022/11/03 10:13:33;;;;;;;11.30;4.50;;;;;;;19.22;67.65;100076.84;5039571;28;20440;-77
2022/11/03 10:16:01;;;;;;;9.43;4.80;;;;;;;19.85;64.51;100074.06;5039537;28;20428;-78
2022/11/03 10:18:29;;;;;;;8.67;3.73;;;;;;;21.28;57.48;100063.63;5039873;28;20468;-78
2022/11/03 10:20:55;;;;;;;6.70;4.30;;;;;;;22.88;50.92;100060.59;5047940;28;20604;-76
2022/11/03 10:23:22;;;;;;;9.20;4.20;;;;;;;24.06;46.20;100049.22;5042261;28;20523;-78
2022/11/03 10:25:49;;;;;;;8.13;4.73;;;;;;;25.45;43.01;100046.75;5041019;28;20543;-78
2022/11/03 10:28:20;;;;;;;8.13;5.70;;;;;;;25.91;41.67;100035.94;5040222;28;20813;-77
2022/11/03 10:30:56;;;;;;;7.53;4.23;;;;;;;25.09;43.03;100025.03;5040151;28;20555;-77
2022/11/03 10:33:30;;;;;;;5.80;4.03;;;;;;;23.69;45.76;100007.28;5051271;28;20446;-77
2022/11/03 10:35:58;;;;;;;5.93;3.37;;;;;;;23.08;48.10;99992.63;5052128;28;20491;-78
2022/11/03 10:38:27;;;;;;;7.10;4.20;;;;;;;22.08;51.14;99977.25;5046848;28;20440;-76
2022/11/03 10:40:55;;;;;;;6.10;3.57;;;;;;;21.79;53.24;99974.66;5040124;28;20460;-76
2022/11/03 10:43:21;;;;;;;9.03;5.00;;;;;;;21.70;54.57;99981.94;5049485;28;20476;-78
2022/11/03 10:45:49;;;;;;;9.47;4.20;;;;;;;22.25;51.76;99987.41;5058950;28;20463;-79
2022/11/03 10:48:17;;;;;;;6.00;3.90;;;;;;;23.53;48.25;99979.72;5050062;28;20455;-77
2022/11/03 10:50:43;;;;;;;9.97;4.73;;;;;;;23.53;48.19;99993.44;5039637;28;20528;-77
2022/11/03 10:53:17;;;;;;;7.03;3.70;;;;;;;22.47;51.04;99998.94;5038839;28;20437;-77
2022/11/03 10:55:44;;;;;;;7.67;4.87;;;;;;;21.91;52.79;99997.25;5042451;28;20507;-77
2022/11/03 10:58:11;;;;;;;17.17;8.30;;;;;;;20.42;59.86;99985.88;5042253;28;20972;-78
2022/11/03 11:00:37;;;;;;;9.57;5.30;;;;;;;19.24;67.81;99977.44;5042630;28;20469;-76
2022/11/03 11:03:06;;;;;;;6.63;3.63;;;;;;;18.45;74.72;99985.19;5044410;28;20945;-78
2022/11/03 11:05:34;;;;;;;8.80;4.87;;;;;;;18.25;77.18;99979.56;5043729;28;20436;-78
2022/11/03 11:08:01;;;;;;;7.87;4.57;;;;;;;17.79;82.63;99960.69;5038848;28;20444;-81
2022/11/03 11:10:30;;;;;;;5.70;4.93;;;;;;;17.69;84.47;99938.81;5041829;28;20506;-77
2022/11/03 11:13:23;;;;;;;5.50;3.83;;;;;;;17.47;86.75;99924.22;5038940;28;20807;-78
2022/11/03 11:15:51;;;;;;;6.80;4.27;;;;;;;17.48;87.17;99942.31;5038144;28;20491;-77
2022/11/03 11:18:51;;;;;;;10.07;4.40;;;;;;;17.21;90.63;99926.34;5038714;28;20927;-77
2022/11/03 11:21:58;;;;;;;8.73;4.50;;;;;;;17.01;92.29;99916.22;5038628;28;20469;-77
2022/11/03 11:25:04;;;;;;;10.23;4.33;;;;;;;17.05;94.22;99915.84;4958072;29;20484;-78
2022/11/03 11:28:00;;;;;;;7.53;4.47;;;;;;;16.83;96.28;99903.09;4957771;29;20522;-78
2022/11/03 11:31:03;;;;;;;6.43;4.60;;;;;;;16.99;94.58;99901.88;4901526;29;20447;-77
2022/11/03 11:33:33;;;;;;;6.78;4.90;;;;;;;17.05;95.12;99895.94;4901242;29;20201;-77
2022/11/03 11:36:19;;;;;;;7.72;4.30;;;;;;;17.10;94.07;99885.53;4904341;29;20217;-78
2022/11/03 11:38:57;;;;;;;7.75;4.25;;;;;;;16.87;96.11;99874.66;4900498;29;20293;-79
2022/11/03 11:42:01;;;;;;;14.05;4.78;;;;;;;16.69;100.00;99873.38;4901375;29;20226;-76
2022/11/03 11:45:02;;;;;;;10.40;4.97;;;;;;;16.32;100.00;99857.22;4903129;29;20605;-78
2022/11/03 11:47:46;;;;;;;7.00;4.18;;;;;;;16.22;100.00;99858.94;4810265;29;20621;-77
2022/11/03 11:50:30;;;;;;;7.60;4.00;;;;;;;15.96;100.00;99856.34;4810682;29;20301;-78
2022/11/03 11:53:04;;;;;;;8.13;4.22;;;;;;;16.23;100.00;99860.66;4809567;29;20191;-77
2022/11/03 11:55:38;;;;;;;8.77;4.25;;;;;;;15.61;100.00;99869.88;4809562;29;20206;-77